createdAt,value
2017-08-29T00:01:38.635Z,18.60
2017-08-29T00:04:04.898Z,18.60
2017-08-29T00:06:31.191Z,18.60
2017-08-29T00:08:57.470Z,18.60
2017-08-29T00:11:23.740Z,18.60
2017-08-29T00:13:50.005Z,18.50
2017-08-29T00:16:16.282Z,18.50
2017-08-29T00:18:42.530Z,18.50
2017-08-29T00:21:09.515Z,18.50
2017-08-29T00:23:35.806Z,18.50
2017-08-29T00:26:02.063Z,18.50
2017-08-29T00:28:28.342Z,18.50
2017-08-29T00:30:54.626Z,18.50
2017-08-29T00:33:20.875Z,18.50
2017-08-29T00:35:47.196Z,18.50
2017-08-29T00:38:13.523Z,18.50
2017-08-29T00:40:39.875Z,18.50
2017-08-29T00:43:06.311Z,18.50
2017-08-29T00:45:32.691Z,18.50
2017-08-29T00:47:59.882Z,18.40
2017-08-29T00:50:26.132Z,18.40
2017-08-29T00:52:52.439Z,18.40
2017-08-29T00:55:18.698Z,18.40
2017-08-29T00:57:44.983Z,18.40
2017-08-29T01:00:11.261Z,18.40
2017-08-29T01:02:37.518Z,18.40
2017-08-29T01:05:03.767Z,18.40
2017-08-29T01:07:30.051Z,18.40
2017-08-29T01:09:56.347Z,18.40
2017-08-29T01:12:22.591Z,18.40
2017-08-29T01:14:48.900Z,18.40
2017-08-29T01:17:15.183Z,18.40
2017-08-29T01:19:41.431Z,18.40
2017-08-29T01:22:07.708Z,18.30
2017-08-29T01:24:33.991Z,18.30
2017-08-29T01:27:00.235Z,18.30
2017-08-29T01:29:27.357Z,18.30
2017-08-29T01:31:53.598Z,18.30
2017-08-29T01:34:19.858Z,18.30
2017-08-29T01:36:46.138Z,18.20
2017-08-29T01:39:12.423Z,18.20
2017-08-29T01:41:38.774Z,18.20
2017-08-29T01:44:05.161Z,18.10
2017-08-29T01:46:31.386Z,18.10
2017-08-29T01:48:57.761Z,18.10
2017-08-29T01:51:24.086Z,18.10
2017-08-29T01:53:50.342Z,18.00
2017-08-29T01:56:16.587Z,18.00
2017-08-29T01:58:42.879Z,18.00
2017-08-29T02:01:09.159Z,18.00
2017-08-29T02:03:35.410Z,18.00
2017-08-29T02:06:01.736Z,18.00
2017-08-29T02:08:27.967Z,18.00
2017-08-29T02:10:54.219Z,18.00
2017-08-29T02:13:20.499Z,18.00
2017-08-29T02:15:46.752Z,18.00
2017-08-29T02:18:12.978Z,18.00
2017-08-29T02:20:39.255Z,18.00
2017-08-29T02:23:05.495Z,18.00
2017-08-29T02:25:31.727Z,18.00
2017-08-29T02:27:58.018Z,18.00
2017-08-29T02:30:24.242Z,18.00
2017-08-29T02:32:50.470Z,18.00
2017-08-29T02:35:16.726Z,18.00
2017-08-29T02:37:42.948Z,18.00
2017-08-29T02:40:09.186Z,18.00
2017-08-29T02:42:35.980Z,18.00
2017-08-29T02:45:04.180Z,18.00
2017-08-29T02:47:30.424Z,17.90
2017-08-29T02:49:56.694Z,17.90
2017-08-29T02:52:22.954Z,17.90
2017-08-29T02:54:49.198Z,17.90
2017-08-29T02:57:15.464Z,17.90
2017-08-29T02:59:41.709Z,17.90
2017-08-29T03:02:07.978Z,17.90
2017-08-29T03:04:34.248Z,17.90
2017-08-29T03:07:00.480Z,17.90
2017-08-29T03:09:26.743Z,17.80
2017-08-29T03:11:53.024Z,17.80
2017-08-29T03:14:21.355Z,17.80
2017-08-29T03:16:47.655Z,17.80
2017-08-29T03:19:13.910Z,17.80
2017-08-29T03:21:40.180Z,17.80
2017-08-29T03:24:06.405Z,17.80
2017-08-29T03:26:32.680Z,17.80
2017-08-29T03:28:58.913Z,17.80
2017-08-29T03:31:25.146Z,17.80
2017-08-29T03:33:51.426Z,17.80
2017-08-29T03:36:17.666Z,17.80
2017-08-29T03:38:43.894Z,17.80
2017-08-29T03:41:10.183Z,17.80
2017-08-29T03:43:36.512Z,17.70
2017-08-29T03:46:04.594Z,17.70
2017-08-29T03:48:30.866Z,17.70
2017-08-29T03:50:57.112Z,17.70
2017-08-29T03:53:23.356Z,17.70
2017-08-29T03:55:49.611Z,17.70
2017-08-29T03:58:15.889Z,17.70
2017-08-29T04:00:42.131Z,17.70
2017-08-29T04:03:08.497Z,17.70
2017-08-29T04:05:34.728Z,17.70
2017-08-29T04:08:00.975Z,17.70
2017-08-29T04:10:27.254Z,17.70
2017-08-29T04:12:53.506Z,17.60
2017-08-29T04:15:19.754Z,17.60
2017-08-29T04:17:45.995Z,17.60
2017-08-29T04:20:12.234Z,17.50
2017-08-29T04:22:38.461Z,17.50
2017-08-29T04:25:04.842Z,17.50
2017-08-29T04:27:31.625Z,17.40
2017-08-29T04:29:57.853Z,17.40
2017-08-29T04:32:24.098Z,17.40
2017-08-29T04:34:50.370Z,17.30
2017-08-29T04:37:16.610Z,17.30
2017-08-29T04:39:43.013Z,17.30
2017-08-29T04:42:09.302Z,17.30
2017-08-29T04:44:35.631Z,17.30
2017-08-29T04:47:02.212Z,17.30
2017-08-29T04:49:28.458Z,17.30
2017-08-29T04:51:54.987Z,17.20
2017-08-29T04:54:21.650Z,17.30
2017-08-29T04:56:48.032Z,17.30
2017-08-29T04:59:14.289Z,17.30
2017-08-29T05:01:40.533Z,17.30
2017-08-29T05:04:06.790Z,17.30
2017-08-29T05:06:33.123Z,17.30
2017-08-29T05:08:59.391Z,17.40
2017-08-29T05:11:25.638Z,17.40
2017-08-29T05:13:51.866Z,17.40
2017-08-29T05:16:18.190Z,17.40
2017-08-29T05:18:44.430Z,17.40
2017-08-29T05:21:10.662Z,17.40
2017-08-29T05:23:36.932Z,17.40
2017-08-29T05:26:03.201Z,17.40
2017-08-29T05:28:29.441Z,17.40
2017-08-29T05:30:55.702Z,17.50
2017-08-29T05:33:21.932Z,17.50
2017-08-29T05:35:48.178Z,17.50
2017-08-29T05:38:14.451Z,17.50
2017-08-29T05:40:40.713Z,17.60
2017-08-29T05:43:06.959Z,17.60
2017-08-29T05:45:33.391Z,17.60
2017-08-29T05:48:00.023Z,17.70
2017-08-29T05:50:26.260Z,17.70
2017-08-29T05:52:52.566Z,17.70
2017-08-29T05:55:19.650Z,17.70
2017-08-29T05:57:45.878Z,17.80
2017-08-29T06:00:12.166Z,17.80
2017-08-29T06:02:38.394Z,17.80
2017-08-29T06:05:04.644Z,17.80
2017-08-29T06:07:30.906Z,17.90
2017-08-29T06:09:57.138Z,17.90
2017-08-29T06:12:23.398Z,17.90
2017-08-29T06:14:49.675Z,17.90
2017-08-29T06:17:15.910Z,17.90
2017-08-29T06:19:42.146Z,18.00
2017-08-29T06:22:08.447Z,18.00
2017-08-29T06:24:34.678Z,18.00
2017-08-29T06:27:00.929Z,18.00
2017-08-29T06:29:27.222Z,18.00
2017-08-29T06:31:53.466Z,18.00
2017-08-29T06:34:19.707Z,18.00
2017-08-29T06:36:45.967Z,18.10
2017-08-29T06:39:12.191Z,18.10
2017-08-29T06:41:38.635Z,18.10
2017-08-29T06:44:05.051Z,18.10
2017-08-29T06:46:31.406Z,18.10
2017-08-29T06:48:57.943Z,18.10
2017-08-29T06:51:24.220Z,18.20
2017-08-29T06:53:50.554Z,18.20
2017-08-29T06:56:16.784Z,18.20
2017-08-29T06:58:43.034Z,18.20
2017-08-29T07:01:09.283Z,18.30
2017-08-29T07:03:35.514Z,18.30
2017-08-29T07:06:01.769Z,18.30
2017-08-29T07:08:28.002Z,18.30
2017-08-29T07:10:54.238Z,18.20
2017-08-29T07:13:20.522Z,18.30
2017-08-29T07:15:47.517Z,18.30
2017-08-29T07:18:13.762Z,18.30
2017-08-29T07:20:40.155Z,18.40
2017-08-29T07:23:06.477Z,18.40
2017-08-29T07:25:32.778Z,18.50
2017-08-29T07:27:59.052Z,18.50
2017-08-29T07:30:25.296Z,18.60
2017-08-29T07:32:51.527Z,18.60
2017-08-29T07:35:17.762Z,18.70
2017-08-29T07:37:43.983Z,18.70
2017-08-29T07:40:10.254Z,18.70
2017-08-29T07:42:36.652Z,18.70
2017-08-29T07:45:03.048Z,18.80
2017-08-29T07:47:29.614Z,18.80
2017-08-29T07:49:56.305Z,18.90
2017-08-29T07:52:22.562Z,18.90
2017-08-29T07:54:49.066Z,18.90
2017-08-29T07:57:15.339Z,18.90
2017-08-29T07:59:41.592Z,18.90
2017-08-29T08:02:07.822Z,19.00
2017-08-29T08:04:34.110Z,19.00
2017-08-29T08:07:00.359Z,19.00
2017-08-29T08:09:26.614Z,19.00
2017-08-29T08:11:52.870Z,19.00
2017-08-29T08:14:19.110Z,19.00
2017-08-29T08:16:45.370Z,19.10
2017-08-29T08:19:11.663Z,19.10
2017-08-29T08:21:37.896Z,19.10
2017-08-29T08:24:04.148Z,19.10
2017-08-29T08:26:30.432Z,19.20
2017-08-29T08:28:56.674Z,19.20
2017-08-29T08:31:22.901Z,19.20
2017-08-29T08:33:49.170Z,19.20
2017-08-29T08:36:15.426Z,19.30
2017-08-29T08:38:41.676Z,19.30
2017-08-29T08:41:07.943Z,19.30
2017-08-29T08:43:34.178Z,19.30
2017-08-29T08:46:00.406Z,19.30
2017-08-29T08:48:26.745Z,19.30
2017-08-29T08:50:53.086Z,19.40
2017-08-29T08:53:19.314Z,19.40
2017-08-29T08:55:45.624Z,19.40
2017-08-29T08:58:11.867Z,19.40
2017-08-29T09:00:38.098Z,19.50
2017-08-29T09:03:04.362Z,19.50
2017-08-29T09:05:30.641Z,19.50
2017-08-29T09:07:56.883Z,19.50
2017-08-29T09:10:23.139Z,19.50
2017-08-29T09:12:49.391Z,19.50
2017-08-29T09:15:15.642Z,19.60
2017-08-29T09:17:41.907Z,19.60
2017-08-29T09:20:08.194Z,19.60
2017-08-29T09:22:34.470Z,19.60
2017-08-29T09:25:00.722Z,19.70
2017-08-29T09:27:26.950Z,19.70
2017-08-29T09:29:53.197Z,19.70
2017-08-29T09:32:19.483Z,19.70
2017-08-29T09:34:45.734Z,19.70
2017-08-29T09:37:11.970Z,19.80
2017-08-29T09:39:38.242Z,19.80
2017-08-29T09:42:04.515Z,19.80
2017-08-29T09:44:30.758Z,19.80
2017-08-29T09:46:57.002Z,19.90
2017-08-29T09:49:23.342Z,19.90
2017-08-29T09:51:50.038Z,19.90
2017-08-29T09:54:16.280Z,19.90
2017-08-29T09:56:42.514Z,19.90
2017-08-29T09:59:08.746Z,19.90
2017-08-29T10:01:34.983Z,20.00
2017-08-29T10:04:01.218Z,19.90
2017-08-29T10:06:27.468Z,19.90
2017-08-29T10:08:53.768Z,20.00
2017-08-29T10:11:20.043Z,20.00
2017-08-29T10:13:46.285Z,20.00
2017-08-29T10:16:12.560Z,20.10
2017-08-29T10:18:38.794Z,20.00
2017-08-29T10:21:05.029Z,20.10
2017-08-29T10:23:31.298Z,20.10
2017-08-29T10:25:57.571Z,20.10
2017-08-29T10:28:23.789Z,20.10
2017-08-29T10:30:50.046Z,20.20
2017-08-29T10:33:16.298Z,20.20
2017-08-29T10:35:42.546Z,20.20
2017-08-29T10:38:08.798Z,20.30
2017-08-29T10:40:35.029Z,20.30
2017-08-29T10:43:01.293Z,20.20
2017-08-29T10:45:27.555Z,20.20
2017-08-29T10:47:53.822Z,20.30
2017-08-29T10:50:20.152Z,20.30
2017-08-29T10:52:46.648Z,20.30
2017-08-29T10:55:13.251Z,20.30
2017-08-29T10:57:39.486Z,20.40
2017-08-29T11:00:05.782Z,20.40
2017-08-29T11:02:32.008Z,20.40
2017-08-29T11:04:58.264Z,20.40
2017-08-29T11:07:24.522Z,20.50
2017-08-29T11:09:50.780Z,20.50
2017-08-29T11:12:17.786Z,20.60
2017-08-29T11:14:44.042Z,20.50
2017-08-29T11:17:10.273Z,20.60
2017-08-29T11:19:36.505Z,20.60
2017-08-29T11:22:02.959Z,20.60
2017-08-29T11:24:29.229Z,20.60
2017-08-29T11:26:55.482Z,20.70
2017-08-29T11:29:22.634Z,20.70
2017-08-29T11:31:48.882Z,20.80
2017-08-29T11:34:15.129Z,20.80
2017-08-29T11:36:41.519Z,20.80
2017-08-29T11:39:07.785Z,20.80
2017-08-29T11:41:34.097Z,20.80
2017-08-29T11:44:00.369Z,20.80
2017-08-29T11:46:26.599Z,20.90
2017-08-29T11:48:52.861Z,20.90
2017-08-29T11:51:19.455Z,20.90
2017-08-29T11:53:45.961Z,21.00
2017-08-29T11:56:12.222Z,20.90
2017-08-29T11:58:38.575Z,21.00
2017-08-29T12:01:04.823Z,21.00
2017-08-29T12:03:31.077Z,21.00
2017-08-29T12:05:57.326Z,21.00
2017-08-29T12:08:23.587Z,21.00
2017-08-29T12:10:49.849Z,21.00
2017-08-29T12:13:16.098Z,21.10
2017-08-29T12:15:42.373Z,21.10
2017-08-29T12:18:08.624Z,21.10
2017-08-29T12:20:37.578Z,21.10
2017-08-29T12:23:03.877Z,21.20
2017-08-29T12:25:30.114Z,21.20
2017-08-29T12:27:56.375Z,21.20
2017-08-29T12:30:22.605Z,21.20
2017-08-29T12:32:48.851Z,21.20
2017-08-29T12:35:15.126Z,21.20
2017-08-29T12:37:41.363Z,21.20
2017-08-29T12:40:07.592Z,21.30
2017-08-29T12:42:33.822Z,21.30
2017-08-29T12:45:00.089Z,21.30
2017-08-29T12:47:26.326Z,21.30
2017-08-29T12:49:52.588Z,21.30
2017-08-29T12:52:18.944Z,21.30
2017-08-29T12:54:45.377Z,21.30
2017-08-29T12:57:11.626Z,21.30
2017-08-29T12:59:37.895Z,21.40
2017-08-29T13:02:04.143Z,21.40
2017-08-29T13:04:30.406Z,21.50
2017-08-29T13:06:56.669Z,21.50
2017-08-29T13:09:22.955Z,21.50
2017-08-29T13:11:49.250Z,21.50
2017-08-29T13:14:15.514Z,21.50
2017-08-29T13:16:41.785Z,21.50
2017-08-29T13:19:08.089Z,21.50
2017-08-29T13:21:34.430Z,21.50
2017-08-29T13:24:00.668Z,21.50
2017-08-29T13:26:26.915Z,21.60
2017-08-29T13:28:53.191Z,21.60
2017-08-29T13:31:19.450Z,21.60
2017-08-29T13:33:45.706Z,21.60
2017-08-29T13:36:11.943Z,21.70
2017-08-29T13:38:38.194Z,21.70
2017-08-29T13:41:04.444Z,21.80
2017-08-29T13:43:30.673Z,21.80
2017-08-29T13:45:56.962Z,21.80
2017-08-29T13:48:23.225Z,21.80
2017-08-29T13:50:49.453Z,21.80
2017-08-29T13:53:15.788Z,21.90
2017-08-29T13:55:42.254Z,21.90
2017-08-29T13:58:15.625Z,21.90
2017-08-29T14:00:41.894Z,21.90
2017-08-29T14:03:08.129Z,22.00
2017-08-29T14:05:34.358Z,22.00
2017-08-29T14:08:00.618Z,22.00
2017-08-29T14:10:26.874Z,22.00
2017-08-29T14:12:53.105Z,22.00
2017-08-29T14:15:19.358Z,22.00
2017-08-29T14:17:45.602Z,22.00
2017-08-29T14:20:11.934Z,22.00
2017-08-29T14:22:38.207Z,22.00
2017-08-29T14:25:04.434Z,22.00
2017-08-29T14:27:30.680Z,22.00
2017-08-29T14:29:56.943Z,22.10
2017-08-29T14:32:23.307Z,22.00
2017-08-29T14:34:49.587Z,22.00
2017-08-29T14:37:15.854Z,22.00
2017-08-29T14:39:42.144Z,22.00
2017-08-29T14:42:08.404Z,22.00
2017-08-29T14:44:34.694Z,22.00
2017-08-29T14:47:13.158Z,22.00
2017-08-29T14:49:39.416Z,22.00
2017-08-29T14:52:05.660Z,22.10
2017-08-29T14:54:32.058Z,22.10
2017-08-29T14:56:58.517Z,22.10
2017-08-29T15:01:55.390Z,22.20
2017-08-29T15:04:21.622Z,22.20
2017-08-29T15:06:47.848Z,22.20
2017-08-29T15:09:14.065Z,22.30
2017-08-29T15:11:40.325Z,22.30
2017-08-29T15:14:06.548Z,22.30
2017-08-29T15:16:32.915Z,22.30
2017-08-29T15:18:59.173Z,22.20
2017-08-29T15:21:25.550Z,22.20
2017-08-29T15:23:51.779Z,22.20
2017-08-29T15:26:18.025Z,22.20
2017-08-29T15:28:44.233Z,22.20
2017-08-29T15:31:10.466Z,22.20
2017-08-29T15:33:36.810Z,22.20
2017-08-29T15:36:03.823Z,22.20
2017-08-29T15:38:30.703Z,22.20
2017-08-29T15:40:56.942Z,22.20
2017-08-29T15:43:23.181Z,22.20
2017-08-29T15:45:49.434Z,22.20
2017-08-29T15:48:15.701Z,22.20
2017-08-29T15:50:41.922Z,22.20
2017-08-29T15:53:08.158Z,22.20
2017-08-29T15:55:34.498Z,22.20
2017-08-29T15:58:00.836Z,22.20
2017-08-29T16:00:27.060Z,22.20
2017-08-29T16:02:53.293Z,22.20
2017-08-29T16:05:19.578Z,22.20
2017-08-29T16:07:45.814Z,22.20
2017-08-29T16:10:12.065Z,22.20
2017-08-29T16:12:38.301Z,22.10
2017-08-29T16:15:05.000Z,22.10
2017-08-29T16:17:31.243Z,22.10
2017-08-29T16:19:57.486Z,22.10
2017-08-29T16:22:23.718Z,22.10
2017-08-29T16:24:49.974Z,22.10
2017-08-29T16:27:16.203Z,22.10
2017-08-29T16:29:42.433Z,22.10
2017-08-29T16:32:08.685Z,22.00
2017-08-29T16:34:34.897Z,22.00
2017-08-29T16:37:01.138Z,22.00
2017-08-29T16:39:27.386Z,22.10
2017-08-29T16:41:53.635Z,22.00
2017-08-29T16:44:19.869Z,22.10
2017-08-29T16:46:46.118Z,22.10
2017-08-29T16:49:12.864Z,22.10
2017-08-29T16:51:39.097Z,22.10
2017-08-29T16:54:05.346Z,22.10
2017-08-29T16:56:31.782Z,22.10
2017-08-29T16:58:58.229Z,22.10
2017-08-29T17:01:24.540Z,22.10
2017-08-29T17:03:50.762Z,22.10
2017-08-29T17:06:16.982Z,22.10
2017-08-29T17:08:43.250Z,22.00
2017-08-29T17:11:09.475Z,22.10
2017-08-29T17:13:35.681Z,22.10
2017-08-29T17:16:01.934Z,22.10
2017-08-29T17:18:29.033Z,22.10
2017-08-29T17:20:55.273Z,22.10
2017-08-29T17:23:21.509Z,22.10
2017-08-29T17:25:47.749Z,22.10
2017-08-29T17:28:13.989Z,22.10
2017-08-29T17:30:40.236Z,22.10
2017-08-29T17:33:06.449Z,22.00
2017-08-29T17:35:32.766Z,22.00
2017-08-29T17:37:59.038Z,22.00
2017-08-29T17:40:25.267Z,22.00
2017-08-29T17:42:51.497Z,22.00
2017-08-29T17:45:17.750Z,22.00
2017-08-29T17:47:43.994Z,22.00
2017-08-29T17:50:11.270Z,22.00
2017-08-29T17:52:44.377Z,22.00
2017-08-29T17:55:10.638Z,22.00
2017-08-29T17:57:37.046Z,22.00
2017-08-29T18:00:03.389Z,22.00
2017-08-29T18:02:29.626Z,22.00
2017-08-29T18:04:55.889Z,22.00
2017-08-29T18:07:22.169Z,22.00
2017-08-29T18:09:48.388Z,22.00
2017-08-29T18:12:14.620Z,22.00
2017-08-29T18:14:40.894Z,22.00
2017-08-29T18:17:07.125Z,22.00
2017-08-29T18:19:33.334Z,22.00
2017-08-29T18:21:59.611Z,22.00
2017-08-29T18:24:25.845Z,22.00
2017-08-29T18:26:52.078Z,22.00
2017-08-29T18:29:18.337Z,22.00
2017-08-29T18:31:44.579Z,22.00
2017-08-29T18:34:11.590Z,22.00
2017-08-29T18:36:37.894Z,22.00
2017-08-29T18:39:04.965Z,22.00
2017-08-29T18:41:31.194Z,22.00
2017-08-29T18:43:57.462Z,22.00
2017-08-29T18:46:23.845Z,22.00
2017-08-29T18:48:50.089Z,22.00
2017-08-29T18:51:16.386Z,21.90
2017-08-29T18:53:42.635Z,21.90
2017-08-29T18:56:09.338Z,21.90
2017-08-29T18:58:36.501Z,21.90
2017-08-29T19:01:03.222Z,21.90
2017-08-29T19:03:29.501Z,21.90
2017-08-29T19:05:55.740Z,21.90
2017-08-29T19:08:21.963Z,21.90
2017-08-29T19:10:48.197Z,21.90
2017-08-29T19:13:14.485Z,21.90
2017-08-29T19:15:40.727Z,21.90
2017-08-29T19:18:06.955Z,21.90
2017-08-29T19:20:33.438Z,21.90
2017-08-29T19:22:59.659Z,21.90
2017-08-29T19:25:25.910Z,21.90
2017-08-29T19:27:52.251Z,21.90
2017-08-29T19:30:18.755Z,21.90
2017-08-29T19:32:45.010Z,21.90
2017-08-29T19:35:11.288Z,21.90
2017-08-29T19:37:37.530Z,21.90
2017-08-29T19:40:03.789Z,21.80
2017-08-29T19:42:30.044Z,21.80
2017-08-29T19:44:56.270Z,21.80
2017-08-29T19:47:22.491Z,21.80
2017-08-29T19:49:48.834Z,21.80
2017-08-29T19:52:15.113Z,21.70
2017-08-29T19:54:41.377Z,21.70
2017-08-29T19:57:07.630Z,21.70
2017-08-29T19:59:33.955Z,21.70
2017-08-29T20:02:00.538Z,21.70
2017-08-29T20:04:26.785Z,21.70
2017-08-29T20:06:53.005Z,21.70
2017-08-29T20:09:19.233Z,21.70
2017-08-29T20:11:45.471Z,21.60
2017-08-29T20:14:11.714Z,21.60
2017-08-29T20:16:44.879Z,21.60
2017-08-29T20:19:11.137Z,21.60
2017-08-29T20:21:37.361Z,21.60
2017-08-29T20:24:03.653Z,21.60
2017-08-29T20:26:29.910Z,21.60
2017-08-29T20:28:57.162Z,21.50
2017-08-29T20:31:23.406Z,21.50
2017-08-29T20:33:49.666Z,21.50
2017-08-29T20:36:15.878Z,21.50
2017-08-29T20:38:42.121Z,21.50
2017-08-29T20:41:08.574Z,21.60
2017-08-29T20:43:34.890Z,21.60
2017-08-29T20:46:01.147Z,21.60
2017-08-29T20:48:27.389Z,21.60
2017-08-29T20:50:53.613Z,21.60
2017-08-29T20:53:19.830Z,21.60
2017-08-29T20:55:46.087Z,21.60
2017-08-29T20:58:12.330Z,21.60
2017-08-29T21:00:38.688Z,21.60
2017-08-29T21:03:05.226Z,21.60
2017-08-29T21:05:31.457Z,21.60
2017-08-29T21:07:57.685Z,21.60
2017-08-29T21:10:23.917Z,21.60
2017-08-29T21:12:50.159Z,21.60
2017-08-29T21:15:17.578Z,21.60
2017-08-29T21:17:43.821Z,21.60
2017-08-29T21:20:10.065Z,21.60
2017-08-29T21:22:36.438Z,21.60
2017-08-29T21:25:02.763Z,21.60
2017-08-29T21:27:28.994Z,21.50
2017-08-29T21:29:55.215Z,21.50
2017-08-29T21:32:21.457Z,21.50
2017-08-29T21:34:47.691Z,21.50
2017-08-29T21:37:13.917Z,21.50
2017-08-29T21:39:40.153Z,21.50
2017-08-29T21:42:06.386Z,21.50
2017-08-29T21:44:32.682Z,21.50
2017-08-29T21:46:58.921Z,21.40
2017-08-29T21:49:25.215Z,21.40
2017-08-29T21:51:51.510Z,21.40
2017-08-29T21:54:17.758Z,21.40
2017-08-29T21:56:43.978Z,21.40
2017-08-29T21:59:10.195Z,21.40
2017-08-29T22:01:36.517Z,21.30
2017-08-29T22:04:04.130Z,21.30
2017-08-29T22:06:30.353Z,21.30
2017-08-29T22:08:56.691Z,21.30
2017-08-29T22:11:22.965Z,21.30
2017-08-29T22:13:49.197Z,21.30
2017-08-29T22:16:15.453Z,21.30
2017-08-29T22:18:41.668Z,21.30
2017-08-29T22:21:07.935Z,21.30
2017-08-29T22:23:34.173Z,21.30
2017-08-29T22:26:00.389Z,21.30
2017-08-29T22:28:26.613Z,21.30
2017-08-29T22:30:53.008Z,21.30
2017-08-29T22:33:20.217Z,21.30
2017-08-29T22:35:46.440Z,21.30
2017-08-29T22:38:12.706Z,21.30
2017-08-29T22:40:38.921Z,21.30
2017-08-29T22:43:05.134Z,21.30
2017-08-29T22:45:31.397Z,21.30
2017-08-29T22:47:57.624Z,21.20
2017-08-29T22:50:23.856Z,21.20
2017-08-29T22:52:50.086Z,21.20
2017-08-29T22:55:16.307Z,21.10
2017-08-29T22:57:42.533Z,21.10
2017-08-29T23:00:08.762Z,21.10
2017-08-29T23:02:35.282Z,21.10
2017-08-29T23:05:01.766Z,21.10
2017-08-29T23:07:28.013Z,21.10
2017-08-29T23:09:54.257Z,21.10
2017-08-29T23:12:20.474Z,21.10
2017-08-29T23:14:46.746Z,21.10
2017-08-29T23:17:12.969Z,21.10
2017-08-29T23:19:39.196Z,21.00
2017-08-29T23:22:05.462Z,21.00
2017-08-29T23:24:31.694Z,21.00
2017-08-29T23:26:57.949Z,21.10
2017-08-29T23:29:24.206Z,21.10
2017-08-29T23:31:50.414Z,21.10
2017-08-29T23:34:16.633Z,21.10
2017-08-29T23:36:42.889Z,21.10
2017-08-29T23:39:09.121Z,21.10
2017-08-29T23:41:35.350Z,21.10
2017-08-29T23:44:01.632Z,21.10
2017-08-29T23:46:27.846Z,21.10
2017-08-29T23:48:54.063Z,21.00
2017-08-29T23:51:20.317Z,21.00
2017-08-29T23:53:46.585Z,21.00
2017-08-29T23:56:13.823Z,21.00
2017-08-29T23:58:40.149Z,21.00
